Time;durP1;ratioP1;P1;durP2;ratioP2;P2;SDS_P1;SDS_P2;PMS_P1;PMS_P2;Temp;Humidity;BMP_temperature;BMP_pressure;BME280_temperature;BME280_humidity;BME280_pressure;Samples;Min_cycle;Max_cycle;Signal;HPM_P1;HPM_P2
2023/01/28 00:01:11;;;;;;;34.33;18.38;;;1.60;65.80;;;;;;5072616;28;20058;-14
2023/01/28 00:03:38;;;;;;;39.15;19.08;;;1.70;65.70;;;;;;5071626;28;20055;-13
2023/01/28 00:06:12;;;;;;;23.98;13.65;;;1.70;66.00;;;;;;5073018;28;20067;-14
2023/01/28 00:08:38;;;;;;;35.70;18.05;;;1.70;65.70;;;;;;5072474;28;20035;-17
2023/01/28 00:11:05;;;;;;;33.83;16.08;;;1.80;65.80;;;;;;5072749;28;20056;-12
2023/01/28 00:13:32;;;;;;;27.98;15.85;;;1.80;65.70;;;;;;5072853;28;20021;-13
2023/01/28 00:16:07;;;;;;;36.97;19.17;;;1.80;65.80;;;;;;5072993;28;20027;-12
2023/01/28 00:18:34;;;;;;;38.45;19.30;;;1.90;66.20;;;;;;5073205;28;20020;-13
2023/01/28 00:21:02;;;;;;;33.33;18.17;;;1.90;66.30;;;;;;5072449;28;20074;-13
2023/01/28 00:23:29;;;;;;;36.03;18.38;;;1.90;65.90;;;;;;5072966;28;20442;-12
2023/01/28 00:25:59;;;;;;;35.20;18.05;;;1.90;65.90;;;;;;5072533;28;20059;-13
2023/01/28 00:28:25;;;;;;;37.35;18.98;;;1.90;66.00;;;;;;5072944;28;20085;-13
2023/01/28 00:30:51;;;;;;;43.13;23.88;;;1.90;65.70;;;;;;5072388;28;20020;-14
2023/01/28 00:33:17;;;;;;;44.85;22.52;;;1.90;65.70;;;;;;5073012;28;20035;-13
2023/01/28 00:35:43;;;;;;;42.92;22.77;;;1.90;65.70;;;;;;5072485;28;20052;-14
2023/01/28 00:38:10;;;;;;;43.30;25.55;;;1.90;65.80;;;;;;5072767;28;20396;-14
2023/01/28 00:40:35;;;;;;;36.75;19.77;;;1.90;65.70;;;;;;5072357;28;20036;-14
2023/01/28 00:43:02;;;;;;;32.72;19.45;;;1.90;65.90;;;;;;5072442;28;20025;-14
2023/01/28 00:45:27;;;;;;;36.33;20.25;;;1.90;66.00;;;;;;5072905;28;20032;-13
2023/01/28 00:47:53;;;;;;;43.22;20.55;;;1.90;65.90;;;;;;5072593;28;20422;-13
2023/01/28 00:50:22;;;;;;;37.17;18.83;;;1.80;66.10;;;;;;5072529;28;20082;-14
2023/01/28 00:52:48;;;;;;;31.92;16.77;;;1.90;66.30;;;;;;5070880;28;20032;-12
2023/01/28 00:55:14;;;;;;;33.33;18.58;;;1.80;66.30;;;;;;5072382;28;20024;-13
2023/01/28 00:57:40;;;;;;;39.25;19.23;;;1.70;66.60;;;;;;5072670;28;20021;-13
2023/01/28 01:00:06;;;;;;;33.70;17.88;;;1.80;66.70;;;;;;5072407;28;20025;-12
2023/01/28 01:02:32;;;;;;;36.22;18.50;;;1.70;66.50;;;;;;5072720;28;20051;-14
2023/01/28 01:04:58;;;;;;;37.53;19.65;;;1.70;66.50;;;;;;5072112;28;20457;-13
2023/01/28 01:07:40;;;;;;;27.73;15.48;;;1.70;66.50;;;;;;5072589;28;20095;-14
2023/01/28 01:10:17;;;;;;;32.53;17.40;;;1.70;66.70;;;;;;5072294;28;20036;-14
2023/01/28 01:12:46;;;;;;;34.92;19.02;;;1.60;66.60;;;;;;5072314;28;20111;-13
2023/01/28 01:15:12;;;;;;;33.75;18.65;;;1.60;67.40;;;;;;5072246;28;20373;-13
2023/01/28 01:17:40;;;;;;;32.65;18.00;;;1.60;67.20;;;;;;5072057;28;20472;-12
2023/01/28 01:20:10;;;;;;;32.45;17.33;;;1.60;67.10;;;;;;5075667;28;20575;-14
2023/01/28 01:22:36;;;;;;;37.08;17.70;;;1.60;67.30;;;;;;5076563;28;20078;-14
2023/01/28 01:25:03;;;;;;;33.00;18.27;;;1.60;68.10;;;;;;5075908;28;20063;-14
2023/01/28 01:27:30;;;;;;;30.20;17.58;;;1.60;68.70;;;;;;5076334;28;20452;-13
2023/01/28 01:30:03;;;;;;;29.92;16.42;;;1.60;69.10;;;;;;5075982;28;20069;-14
2023/01/28 01:32:30;;;;;;;29.40;15.73;;;1.50;68.80;;;;;;5074629;28;20075;-12
2023/01/28 01:34:56;;;;;;;28.00;14.38;;;1.50;68.90;;;;;;5074300;28;20416;-13
2023/01/28 01:37:22;;;;;;;25.58;14.20;;;1.40;68.00;;;;;;5075979;28;20522;-13
2023/01/28 01:39:48;;;;;;;28.48;13.63;;;1.40;67.90;;;;;;5075527;28;20032;-15
2023/01/28 01:42:14;;;;;;;30.52;16.33;;;1.50;67.80;;;;;;5075673;28;20029;-14
2023/01/28 01:44:58;;;;;;;30.00;16.73;;;1.50;67.90;;;;;;5075737;28;20052;-14
2023/01/28 01:47:54;;;;;;;30.47;15.83;;;1.50;68.10;;;;;;5075885;28;20033;-13
2023/01/28 01:50:31;;;;;;;29.40;15.50;;;1.50;68.10;;;;;;5073651;28;20024;-12
2023/01/28 01:53:03;;;;;;;32.58;16.67;;;1.40;68.20;;;;;;5075449;28;20159;-12
2023/01/28 01:55:32;;;;;;;32.47;17.45;;;1.40;68.40;;;;;;5075479;28;20157;-12
2023/01/28 01:58:03;;;;;;;33.83;18.02;;;1.30;68.90;;;;;;5074029;28;20052;-14
2023/01/28 02:00:29;;;;;;;34.55;18.27;;;1.20;69.00;;;;;;5075524;28;20037;-13
2023/01/28 02:02:57;;;;;;;36.83;18.50;;;1.10;70.20;;;;;;5075045;28;20025;-14
2023/01/28 02:05:24;;;;;;;35.13;18.90;;;1.00;70.20;;;;;;5075192;28;20063;-14
2023/01/28 02:08:38;;;;;;;31.50;16.80;;;0.90;69.40;;;;;;5075589;28;20433;-14
2023/01/28 02:10:39;;;;;;;25.30;14.40;;;0.80;69.60;;;;;;5071233;28;20036;-14
2023/01/28 02:13:05;;;;;;;35.78;18.83;;;0.60;70.20;;;;;;5075351;28;20024;-13
2023/01/28 02:15:31;;;;;;;38.22;19.02;;;0.60;70.60;;;;;;5075476;28;20469;-13
2023/01/28 02:17:57;;;;;;;37.30;17.98;;;0.50;70.20;;;;;;5074939;28;20028;-13
2023/01/28 02:20:52;;;;;;;31.02;14.95;;;0.40;70.30;;;;;;5075201;28;20431;-14
2023/01/28 02:23:51;;;;;;;29.83;16.98;;;0.30;70.20;;;;;;5071026;28;20471;-13
2023/01/28 02:26:38;;;;;;;26.02;15.50;;;0.30;70.20;;;;;;5075106;28;20032;-13
2023/01/28 02:29:42;;;;;;;25.45;13.57;;;0.20;70.60;;;;;;5073818;28;20036;-12
2023/01/28 02:32:30;;;;;;;31.10;16.00;;;0.20;70.50;;;;;;5073182;28;20103;-13
2023/01/28 02:35:14;;;;;;;23.48;12.82;;;0.10;70.50;;;;;;5074466;28;20113;-13
2023/01/28 02:37:58;;;;;;;27.58;14.93;;;0.10;70.80;;;;;;5075093;28;20082;-13
2023/01/28 02:40:33;;;;;;;32.78;18.42;;;0.00;70.90;;;;;;5074997;28;20106;-14
2023/01/28 02:42:59;;;;;;;28.38;16.83;;;0.00;71.40;;;;;;5074525;28;20032;-14
2023/01/28 02:48:19;;;;;;;34.20;18.10;;;-0.10;71.30;;;;;;5075083;28;20093;-14
2023/01/28 02:50:59;;;;;;;27.20;14.98;;;-0.10;71.80;;;;;;5073200;28;20074;-13
2023/01/28 02:53:42;;;;;;;31.92;16.25;;;-0.20;71.40;;;;;;5074470;28;20044;-13
2023/01/28 02:56:28;;;;;;;31.02;14.93;;;-0.30;71.60;;;;;;5074317;28;20451;-13
2023/01/28 02:59:29;;;;;;;32.15;16.45;;;-0.30;71.70;;;;;;5074209;28;20029;-12
2023/01/28 03:01:49;;;;;;;26.50;14.32;;;-0.30;72.00;;;;;;5074203;28;20049;-12
2023/01/28 03:04:29;;;;;;;24.63;13.02;;;-0.40;72.20;;;;;;5074414;28;20381;-12
2023/01/28 03:06:59;;;;;;;20.65;12.00;;;-0.40;72.30;;;;;;5074065;28;20085;-13
2023/01/28 03:09:26;;;;;;;27.42;12.93;;;-0.40;71.80;;;;;;5074233;28;20032;-13
2023/01/28 03:36:53;;;;;;;27.27;15.02;;;-0.30;74.00;;;;;;5073745;28;20055;-15
2023/01/28 03:39:27;;;;;;;32.33;17.27;;;-0.30;74.20;;;;;;5073536;28;20055;-14
2023/01/28 03:42:10;;;;;;;30.20;14.63;;;-0.30;74.30;;;;;;5073906;28;20039;-14
2023/01/28 03:47:34;;;;;;;33.03;16.15;;;-0.30;73.80;;;;;;5031424;28;20045;-12
2023/01/28 03:50:00;;;;;;;32.45;16.33;;;-0.30;73.50;;;;;;5031894;28;20109;-13
2023/01/28 03:52:29;;;;;;;29.00;14.05;;;-0.30;73.40;;;;;;5031410;28;20148;-13
2023/01/28 03:54:56;;;;;;;22.42;12.13;;;-0.40;73.00;;;;;;5031123;28;20112;-13
2023/01/28 03:57:25;;;;;;;20.50;11.02;;;-0.30;72.60;;;;;;5031120;28;20545;-12
2023/01/28 03:59:51;;;;;;;31.38;14.85;;;-0.30;72.50;;;;;;5031483;28;20049;-13
2023/01/28 04:02:19;;;;;;;26.33;14.80;;;-0.30;72.70;;;;;;5031115;28;20044;-12
2023/01/28 04:04:45;;;;;;;27.70;13.55;;;-0.30;73.40;;;;;;5031184;28;20063;-12
2023/01/28 04:07:15;;;;;;;29.23;14.35;;;-0.30;73.10;;;;;;5031188;28;20033;-12
2023/01/28 04:09:42;;;;;;;20.48;11.32;;;-0.30;72.90;;;;;;5031112;28;20033;-13
2023/01/28 04:12:09;;;;;;;25.30;14.27;;;-0.30;73.30;;;;;;5031586;28;20126;-12
2023/01/28 04:14:35;;;;;;;30.33;14.93;;;-0.30;73.50;;;;;;5030815;28;20029;-13
2023/01/28 04:17:01;;;;;;;27.98;15.50;;;-0.30;73.50;;;;;;5030596;28;20033;-12
2023/01/28 04:19:27;;;;;;;35.22;16.30;;;-0.30;73.50;;;;;;5030870;28;20041;-13
2023/01/28 04:21:54;;;;;;;31.08;16.13;;;-0.30;73.30;;;;;;5030820;28;20033;-13
2023/01/28 04:24:21;;;;;;;34.22;17.38;;;-0.30;73.20;;;;;;5072565;28;20083;-12
2023/01/28 04:26:47;;;;;;;33.83;17.67;;;-0.20;73.40;;;;;;5072749;28;20023;-13
2023/01/28 04:29:12;;;;;;;25.33;13.77;;;-0.20;73.20;;;;;;5088376;28;20024;-13
2023/01/28 04:31:38;;;;;;;30.15;14.60;;;-0.20;73.20;;;;;;5071301;28;20043;-14
2023/01/28 04:34:04;;;;;;;29.20;15.02;;;-0.20;73.70;;;;;;5071426;28;20035;-12
2023/01/28 04:36:30;;;;;;;33.42;16.10;;;-0.10;73.90;;;;;;5072509;28;20101;-13
2023/01/28 04:38:56;;;;;;;27.20;13.25;;;-0.10;73.80;;;;;;5072314;28;20514;-13
2023/01/28 04:41:22;;;;;;;26.65;14.63;;;-0.10;73.60;;;;;;5073173;28;20032;-13
2023/01/28 04:43:48;;;;;;;36.80;17.95;;;-0.10;73.80;;;;;;5088048;28;20499;-13
2023/01/28 04:46:15;;;;;;;36.58;16.92;;;-0.10;73.70;;;;;;5072638;28;20111;-12
2023/01/28 04:48:41;;;;;;;32.60;17.10;;;-0.10;73.50;;;;;;5072757;28;20028;-13
2023/01/28 04:51:07;;;;;;;31.50;16.88;;;-0.10;73.20;;;;;;5072539;28;20078;-13
2023/01/28 04:53:33;;;;;;;33.28;16.67;;;-0.10;73.00;;;;;;5072119;28;20032;-12
2023/01/28 04:55:59;;;;;;;31.83;16.42;;;-0.10;73.30;;;;;;5072480;28;20480;-13
2023/01/28 04:58:26;;;;;;;30.15;16.25;;;-0.10;73.20;;;;;;5072353;28;20051;-12
2023/01/28 05:00:56;;;;;;;36.05;17.63;;;-0.10;73.00;;;;;;5072220;28;20548;-13
2023/01/28 05:03:23;;;;;;;31.98;17.17;;;-0.10;72.90;;;;;;5073025;28;20043;-13
2023/01/28 05:05:49;;;;;;;31.98;17.02;;;-0.10;72.90;;;;;;5072787;28;20112;-13
2023/01/28 05:08:16;;;;;;;34.10;16.63;;;-0.10;73.60;;;;;;5072642;28;20031;-14
2023/01/28 05:10:42;;;;;;;33.10;18.05;;;-0.10;74.00;;;;;;5072587;28;20078;-13
2023/01/28 05:13:08;;;;;;;34.30;17.90;;;-0.10;74.20;;;;;;5072672;28;20038;-13
2023/01/28 05:15:34;;;;;;;33.92;17.40;;;-0.10;73.60;;;;;;5071068;28;20033;-13
2023/01/28 05:18:00;;;;;;;33.00;17.38;;;-0.20;74.00;;;;;;5072270;28;20112;-12
2023/01/28 05:20:26;;;;;;;28.23;14.57;;;-0.20;73.90;;;;;;5072535;28;20033;-13
2023/01/28 05:22:52;;;;;;;29.88;15.35;;;-0.20;74.00;;;;;;5072097;28;20503;-13
2023/01/28 05:25:19;;;;;;;31.60;16.90;;;-0.30;74.20;;;;;;5072544;28;20020;-13
2023/01/28 05:27:50;;;;;;;29.05;15.40;;;-0.30;74.50;;;;;;5072572;28;20032;-14
2023/01/28 05:30:20;;;;;;;31.17;16.00;;;-0.30;74.40;;;;;;5072425;28;20039;-13
2023/01/28 05:32:46;;;;;;;35.35;17.02;;;-0.30;74.30;;;;;;5072222;28;20066;-13
2023/01/28 05:35:11;;;;;;;34.55;16.92;;;-0.30;74.40;;;;;;5071799;28;20056;-13
2023/01/28 05:37:37;;;;;;;30.88;15.77;;;-0.30;73.80;;;;;;5072132;28;20445;-13
2023/01/28 05:40:04;;;;;;;34.10;16.45;;;-0.30;73.70;;;;;;5073090;28;20124;-13
2023/01/28 05:42:30;;;;;;;29.83;14.52;;;-0.30;73.60;;;;;;5072038;28;20070;-14
2023/01/28 05:44:55;;;;;;;35.08;17.27;;;-0.30;73.90;;;;;;5071837;28;20056;-13
2023/01/28 05:47:21;;;;;;;35.33;18.35;;;-0.40;74.10;;;;;;5072565;28;20036;-14
2023/01/28 05:49:47;;;;;;;26.02;13.85;;;-0.40;74.30;;;;;;5071874;28;20021;-13
2023/01/28 05:52:13;;;;;;;26.58;13.05;;;-0.50;74.30;;;;;;5072831;28;20082;-14
2023/01/28 05:54:39;;;;;;;27.25;13.45;;;-0.50;74.20;;;;;;5087884;28;20400;-13
2023/01/28 05:57:05;;;;;;;28.55;14.05;;;-0.50;73.70;;;;;;5087396;28;20054;-13
2023/01/28 05:59:31;;;;;;;25.83;13.10;;;-0.50;74.10;;;;;;5072062;28;20028;-13
2023/01/28 06:01:56;;;;;;;25.80;13.25;;;-0.50;74.30;;;;;;5072247;28;20607;-14
2023/01/28 06:04:22;;;;;;;25.27;12.13;;;-0.60;74.10;;;;;;5072086;28;20025;-14
2023/01/28 06:06:48;;;;;;;32.35;15.63;;;-0.60;73.90;;;;;;5074263;28;20104;-13
2023/01/28 06:09:14;;;;;;;30.15;16.30;;;-0.70;74.30;;;;;;5075630;28;20477;-12
2023/01/28 06:11:40;;;;;;;31.42;17.10;;;-0.70;74.40;;;;;;5074070;28;20133;-12
2023/01/28 06:14:06;;;;;;;34.92;17.35;;;-0.80;74.50;;;;;;5075554;28;20024;-12
2023/01/28 06:16:32;;;;;;;30.48;14.98;;;-0.90;74.40;;;;;;5075369;28;20032;-13
2023/01/28 06:18:58;;;;;;;24.95;13.00;;;-0.90;74.00;;;;;;5075291;28;20032;-13
2023/01/28 06:21:24;;;;;;;21.65;12.10;;;-1.00;74.10;;;;;;5075109;28;20051;-12
2023/01/28 06:23:49;;;;;;;28.90;13.32;;;-0.90;73.70;;;;;;5075387;28;20094;-13
2023/01/28 06:26:15;;;;;;;25.55;12.50;;;-0.90;73.80;;;;;;5074942;28;20385;-13
2023/01/28 06:28:41;;;;;;;26.23;13.52;;;-1.00;74.00;;;;;;5073710;28;20029;-14
2023/01/28 06:31:07;;;;;;;22.60;11.80;;;-1.00;74.10;;;;;;5075073;28;20032;-13
2023/01/28 06:33:33;;;;;;;23.80;12.73;;;-1.00;74.20;;;;;;5075456;28;20463;-13
2023/01/28 06:36:02;;;;;;;30.00;15.43;;;-1.10;74.40;;;;;;5074804;28;20063;-14
2023/01/28 06:38:28;;;;;;;28.40;14.65;;;-1.10;74.50;;;;;;5075144;28;20111;-13
2023/01/28 06:40:54;;;;;;;20.35;11.02;;;-1.10;74.80;;;;;;5074626;28;20107;-13
2023/01/28 06:43:27;;;;;;;30.65;15.10;;;-1.10;74.70;;;;;;5074645;28;20058;-12
2023/01/28 06:45:56;;;;;;;32.25;16.48;;;-1.10;74.90;;;;;;5074919;28;20033;-14
2023/01/28 06:48:23;;;;;;;21.08;12.18;;;-1.10;75.00;;;;;;5074683;28;20550;-13
2023/01/28 06:50:49;;;;;;;40.88;19.90;;;-1.10;74.90;;;;;;5074747;28;20027;-13
2023/01/28 06:53:16;;;;;;;32.70;16.85;;;-1.10;75.00;;;;;;5075059;28;20138;-14
2023/01/28 06:55:42;;;;;;;32.85;16.98;;;-1.10;75.50;;;;;;5074488;28;20032;-14
2023/01/28 06:58:08;;;;;;;28.30;13.98;;;-1.10;75.20;;;;;;5074437;28;20139;-12
2023/01/28 07:00:34;;;;;;;36.53;20.58;;;-1.10;75.30;;;;;;5074561;28;20119;-13
2023/01/28 07:03:00;;;;;;;28.88;15.32;;;-1.10;75.50;;;;;;5074537;28;20035;-13
2023/01/28 07:05:26;;;;;;;33.80;16.95;;;-1.10;75.30;;;;;;5074262;28;20052;-13
2023/01/28 07:07:52;;;;;;;33.60;18.08;;;-1.10;75.60;;;;;;5074093;28;20040;-13
2023/01/28 07:10:18;;;;;;;32.58;18.25;;;-1.10;75.50;;;;;;5074416;28;20024;-13
2023/01/28 07:12:44;;;;;;;36.40;17.52;;;-1.00;75.40;;;;;;5074348;28;20025;-13
2023/01/28 07:15:11;;;;;;;34.95;17.08;;;-0.90;75.50;;;;;;5073899;28;20476;-13
2023/01/28 07:17:43;;;;;;;32.33;17.33;;;-0.80;75.60;;;;;;5073891;28;20103;-14
2023/01/28 07:20:11;;;;;;;36.28;19.30;;;-0.60;75.60;;;;;;5074667;28;20526;-13
2023/01/28 07:22:39;;;;;;;32.97;16.25;;;-0.40;75.60;;;;;;5074103;28;20023;-14
2023/01/28 07:25:06;;;;;;;34.15;18.00;;;-0.20;75.70;;;;;;5073959;28;20078;-13
2023/01/28 07:27:32;;;;;;;32.03;16.55;;;0.00;75.60;;;;;;5074041;28;20031;-13
2023/01/28 07:29:58;;;;;;;26.88;14.35;;;0.10;75.80;;;;;;5074171;28;20029;-13
2023/01/28 07:32:26;;;;;;;28.08;15.43;;;0.30;75.50;;;;;;5073411;28;20052;-13
2023/01/28 07:34:52;;;;;;;43.20;20.92;;;0.60;75.30;;;;;;5073212;28;20058;-14
2023/01/28 07:37:19;;;;;;;44.70;21.85;;;0.80;75.00;;;;;;5073504;28;20373;-14
2023/01/28 07:39:44;;;;;;;42.28;21.80;;;0.90;74.70;;;;;;5073728;28;20033;-14
2023/01/28 07:42:10;;;;;;;40.03;20.63;;;1.00;74.50;;;;;;5073647;28;20502;-13
2023/01/28 07:44:37;;;;;;;39.22;19.92;;;1.10;74.50;;;;;;5074382;28;20055;-14
2023/01/28 07:47:04;;;;;;;44.45;22.45;;;1.10;74.40;;;;;;5073316;28;20117;-14
2023/01/28 07:49:31;;;;;;;45.45;26.10;;;1.20;74.50;;;;;;5073538;28;20029;-14
2023/01/28 07:51:57;;;;;;;42.95;22.23;;;1.40;74.20;;;;;;5073555;28;20029;-14
2023/01/28 07:54:22;;;;;;;41.92;22.45;;;1.50;73.70;;;;;;5073383;28;20094;-15
2023/01/28 07:56:48;;;;;;;51.90;24.77;;;1.60;73.20;;;;;;5073108;28;20418;-13
2023/01/28 07:59:14;;;;;;;53.47;25.05;;;1.60;72.90;;;;;;5073523;28;20505;-14
2023/01/28 08:01:40;;;;;;;51.55;24.85;;;1.60;72.70;;;;;;5073247;28;20043;-14
2023/01/28 08:04:06;;;;;;;124.20;53.63;;;1.60;72.80;;;;;;5088635;28;20396;-14
2023/01/28 08:06:36;;;;;;;44.40;22.13;;;1.60;72.60;;;;;;5072895;28;20028;-13
2023/01/28 08:09:05;;;;;;;47.58;23.70;;;1.70;72.60;;;;;;5072741;28;20388;-14
2023/01/28 08:11:32;;;;;;;38.97;21.08;;;1.70;72.60;;;;;;5073653;28;20021;-14
2023/01/28 08:13:58;;;;;;;42.22;19.38;;;1.80;72.50;;;;;;5073909;28;20174;-14
2023/01/28 08:16:24;;;;;;;45.38;23.63;;;1.90;72.30;;;;;;5073166;28;20028;-13
2023/01/28 08:18:51;;;;;;;59.17;32.28;;;1.90;71.90;;;;;;5073078;28;20028;-14
2023/01/28 08:21:17;;;;;;;41.63;21.15;;;1.90;71.70;;;;;;5072965;28;20025;-14
2023/01/28 08:23:43;;;;;;;48.75;26.73;;;1.90;71.60;;;;;;5072730;28;20028;-14
2023/01/28 08:26:08;;;;;;;36.40;18.58;;;1.90;71.40;;;;;;5072991;28;20035;-13
2023/01/28 08:28:34;;;;;;;36.40;18.95;;;2.00;71.30;;;;;;5072180;28;20435;-15
2023/01/28 08:31:01;;;;;;;31.10;16.95;;;2.10;71.30;;;;;;5072685;28;20028;-13
2023/01/28 08:33:27;;;;;;;36.45;18.75;;;2.20;71.20;;;;;;5072643;28;20086;-14
2023/01/28 08:35:53;;;;;;;38.08;17.27;;;2.30;71.20;;;;;;5072281;28;20072;-15
2023/01/28 08:38:19;;;;;;;27.70;15.05;;;2.40;70.90;;;;;;5072976;28;20056;-13
2023/01/28 08:40:46;;;;;;;31.55;16.98;;;2.50;70.70;;;;;;5073401;28;20064;-14
2023/01/28 08:43:12;;;;;;;30.00;15.13;;;2.60;70.40;;;;;;5072772;28;20047;-14
2023/01/28 08:45:41;;;;;;;26.77;14.50;;;2.80;70.20;;;;;;5087983;28;20032;-14
2023/01/28 08:48:11;;;;;;;30.17;15.27;;;2.90;70.30;;;;;;5072352;28;20024;-14
2023/01/28 08:50:38;;;;;;;28.50;14.60;;;3.00;69.80;;;;;;5072407;28;20120;-14
2023/01/28 08:53:10;;;;;;;29.92;14.98;;;3.20;69.80;;;;;;5072209;28;20033;-13
2023/01/28 08:55:36;;;;;;;30.25;14.57;;;3.40;69.50;;;;;;5072665;28;20020;-14
2023/01/28 08:58:07;;;;;;;24.13;13.02;;;3.60;69.40;;;;;;5088190;28;20028;-14
2023/01/28 09:00:34;;;;;;;22.33;11.85;;;3.80;69.10;;;;;;5072270;28;20142;-14
2023/01/28 09:03:00;;;;;;;19.85;9.80;;;4.00;68.80;;;;;;5071981;28;20021;-14
2023/01/28 09:05:26;;;;;;;20.38;9.07;;;4.20;67.70;;;;;;5072314;28;20029;-14
2023/01/28 09:07:51;;;;;;;16.65;8.32;;;4.40;66.00;;;;;;5072577;28;20021;-13
2023/01/28 09:10:19;;;;;;;17.67;8.60;;;4.60;64.10;;;;;;5072456;28;20032;-15
2023/01/28 09:12:45;;;;;;;17.98;8.98;;;4.90;65.50;;;;;;5072192;28;20021;-13
2023/01/28 09:15:11;;;;;;;17.92;9.02;;;5.00;65.10;;;;;;5072067;28;20032;-13
2023/01/28 09:17:38;;;;;;;18.70;8.85;;;5.20;63.70;;;;;;5072365;28;20028;-14
2023/01/28 09:20:05;;;;;;;15.77;7.53;;;5.40;63.20;;;;;;5072342;28;20032;-13
2023/01/28 09:22:32;;;;;;;18.60;9.02;;;5.60;63.10;;;;;;5072222;28;20082;-13
2023/01/28 09:24:58;;;;;;;17.73;8.95;;;5.80;61.40;;;;;;5071810;28;20123;-14
2023/01/28 09:27:24;;;;;;;19.77;9.38;;;5.90;61.00;;;;;;5072408;28;20031;-13
2023/01/28 09:29:49;;;;;;;17.13;8.20;;;6.10;61.20;;;;;;5072006;28;20414;-14
2023/01/28 09:32:16;;;;;;;15.88;8.82;;;6.20;60.80;;;;;;5072076;28;20555;-13
2023/01/28 09:34:43;;;;;;;14.95;8.02;;;6.40;60.50;;;;;;5070639;28;20056;-13
2023/01/28 09:37:10;;;;;;;17.23;7.93;;;6.70;61.50;;;;;;5071812;28;20044;-13
2023/01/28 09:39:36;;;;;;;16.73;8.57;;;7.00;61.30;;;;;;5072577;28;20067;-14
2023/01/28 09:42:21;;;;;;;13.82;7.43;;;7.30;60.70;;;;;;5075873;28;20033;-14
2023/01/28 09:44:53;;;;;;;14.82;7.40;;;7.60;58.30;;;;;;5075720;28;20067;-12
2023/01/28 09:47:31;;;;;;;14.88;7.63;;;7.80;57.80;;;;;;5075522;28;20107;-13
2023/01/28 09:50:00;;;;;;;15.00;7.93;;;7.90;56.00;;;;;;5075601;28;20024;-12
2023/01/28 09:52:29;;;;;;;14.40;8.35;;;8.00;55.00;;;;;;5075616;28;20021;-13
2023/01/28 09:55:05;;;;;;;14.55;8.43;;;8.20;57.20;;;;;;5075367;28;20024;-13
2023/01/28 09:57:40;;;;;;;16.20;9.27;;;8.50;56.60;;;;;;5075847;28;20029;-13
2023/01/28 10:00:15;;;;;;;13.80;7.93;;;8.90;55.80;;;;;;5075426;28;20089;-13
2023/01/28 10:02:43;;;;;;;13.85;7.72;;;9.00;54.80;;;;;;5090863;28;20523;-13
2023/01/28 10:05:26;;;;;;;14.88;8.32;;;9.00;54.50;;;;;;5075155;28;20032;-13
2023/01/28 10:08:00;;;;;;;14.75;8.25;;;9.00;54.40;;;;;;5075585;28;20074;-13
2023/01/28 10:10:35;;;;;;;14.93;8.10;;;9.00;54.90;;;;;;5075809;28;20021;-12
2023/01/28 10:13:42;;;;;;;15.00;7.90;;;9.00;53.40;;;;;;5075464;28;20028;-13
2023/01/28 10:16:32;;;;;;;16.55;8.52;;;9.10;53.50;;;;;;5075514;28;20044;-13
2023/01/28 10:19:14;;;;;;;33.50;17.05;;;9.20;54.00;;;;;;5074858;28;20029;-13
2023/01/28 10:21:53;;;;;;;15.45;8.40;;;9.30;52.40;;;;;;5075461;28;20029;-12
2023/01/28 10:24:25;;;;;;;16.58;8.45;;;9.40;52.50;;;;;;5075056;28;20071;-12
2023/01/28 10:26:51;;;;;;;15.52;8.05;;;9.50;51.30;;;;;;5075045;28;20028;-12
2023/01/28 10:29:20;;;;;;;17.08;8.50;;;9.50;51.90;;;;;;5074802;28;20017;-12
2023/01/28 10:32:02;;;;;;;15.65;8.20;;;9.70;52.30;;;;;;5075087;28;20028;-11
2023/01/28 10:34:28;;;;;;;18.38;9.27;;;9.90;51.20;;;;;;5074520;28;20500;-12
2023/01/28 10:36:56;;;;;;;15.95;9.55;;;10.00;51.40;;;;;;5074517;28;20023;-12
2023/01/28 10:39:23;;;;;;;19.25;10.02;;;10.10;50.10;;;;;;5074717;28;20444;-12
2023/01/28 10:41:50;;;;;;;18.08;9.93;;;10.10;49.90;;;;;;5074814;28;20036;-12
2023/01/28 10:44:26;;;;;;;15.45;8.75;;;10.20;50.70;;;;;;5074527;28;20103;-12
2023/01/28 10:46:54;;;;;;;16.83;8.60;;;10.30;51.30;;;;;;5074228;28;20034;-12
2023/01/28 10:49:26;;;;;;;17.80;9.88;;;10.70;51.40;;;;;;5074419;28;20028;-12
2023/01/28 10:51:52;;;;;;;15.77;9.07;;;11.20;50.10;;;;;;5074248;28;20070;-13
2023/01/28 10:54:21;;;;;;;13.75;8.10;;;11.60;49.20;;;;;;5074363;28;20107;-12
2023/01/28 10:56:56;;;;;;;19.17;10.77;;;11.90;48.60;;;;;;5074407;28;20024;-13
2023/01/28 10:59:31;;;;;;;18.55;8.45;;;11.90;48.80;;;;;;5074459;28;20024;-13
2023/01/28 11:02:02;;;;;;;14.93;8.48;;;11.90;48.10;;;;;;5074511;28;20096;-12
2023/01/28 11:04:33;;;;;;;14.95;8.13;;;11.90;47.20;;;;;;5074584;28;20055;-13
2023/01/28 11:07:04;;;;;;;16.20;8.68;;;11.90;46.90;;;;;;5072738;28;20029;-13
2023/01/28 11:09:32;;;;;;;16.15;8.68;;;11.90;45.40;;;;;;5074662;28;20381;-13
2023/01/28 11:12:09;;;;;;;18.65;9.77;;;11.90;47.20;;;;;;5074372;28;20028;-13
2023/01/28 11:14:35;;;;;;;16.38;9.30;;;12.10;46.80;;;;;;5074368;28;20028;-12
2023/01/28 11:17:01;;;;;;;16.95;9.18;;;12.10;45.40;;;;;;5074089;28;20397;-13
2023/01/28 11:19:33;;;;;;;17.20;9.82;;;12.00;45.20;;;;;;5074187;28;20032;-13
2023/01/28 11:22:00;;;;;;;16.65;9.38;;;11.90;44.20;;;;;;5073859;28;20032;-12
2023/01/28 11:24:32;;;;;;;15.40;8.77;;;11.80;45.50;;;;;;5074143;28;20086;-12
2023/01/28 11:27:28;;;;;;;16.60;8.93;;;11.90;44.30;;;;;;5073586;28;20033;-12
2023/01/28 11:29:57;;;;;;;15.40;8.98;;;12.10;45.40;;;;;;5073989;28;20039;-14
2023/01/28 11:32:25;;;;;;;16.15;9.07;;;12.40;45.20;;;;;;5073864;28;20025;-12
2023/01/28 11:34:56;;;;;;;15.38;8.85;;;12.70;45.00;;;;;;5073398;28;20048;-12
2023/01/28 11:37:23;;;;;;;18.98;9.30;;;12.80;43.80;;;;;;5074213;28;20028;-13
2023/01/28 11:40:01;;;;;;;17.10;9.20;;;12.70;43.60;;;;;;5073519;28;20021;-12
2023/01/28 11:42:27;;;;;;;16.48;9.40;;;12.70;42.70;;;;;;5073987;28;20145;-13
2023/01/28 11:44:53;;;;;;;16.17;9.57;;;12.70;42.60;;;;;;5073487;28;20032;-13
2023/01/28 11:47:34;;;;;;;17.38;10.07;;;12.70;42.40;;;;;;5073509;28;20403;-13
2023/01/28 11:50:15;;;;;;;18.35;10.65;;;12.80;42.20;;;;;;5073686;28;20036;-11
2023/01/28 11:53:06;;;;;;;17.08;9.82;;;12.90;41.40;;;;;;5073562;28;20372;-12
2023/01/28 11:56:42;;;;;;;16.95;10.10;;;12.70;41.20;;;;;;5073261;28;20407;-12
2023/01/28 11:59:18;;;;;;;20.15;11.15;;;12.40;40.90;;;;;;5012429;28;20030;-14
2023/01/28 12:01:58;;;;;;;18.40;11.15;;;12.30;42.60;;;;;;5050813;28;20103;-12
2023/01/28 12:04:42;;;;;;;22.52;11.52;;;12.30;42.60;;;;;;5050105;28;20552;-13
2023/01/28 12:07:18;;;;;;;20.00;11.23;;;12.30;42.60;;;;;;5050747;28;20543;-12
2023/01/28 12:10:10;;;;;;;19.58;11.43;;;12.20;42.90;;;;;;5051007;28;20524;-14
2023/01/28 12:12:50;;;;;;;20.10;11.15;;;12.30;43.40;;;;;;5050966;28;20021;-13
2023/01/28 12:15:38;;;;;;;20.25;11.38;;;12.40;43.30;;;;;;5050738;28;20029;-12
2023/01/28 12:19:03;;;;;;;19.40;11.45;;;12.50;42.30;;;;;;5050615;28;20548;-11
2023/01/28 12:21:59;;;;;;;17.65;10.88;;;12.50;42.30;;;;;;5000894;28;20524;-12
2023/01/28 12:24:39;;;;;;;18.48;11.05;;;12.50;42.70;;;;;;5011837;28;20164;-13
2023/01/28 12:27:29;;;;;;;17.50;10.63;;;12.50;42.70;;;;;;5047092;28;20130;-12
2023/01/28 12:29:58;;;;;;;17.08;10.05;;;12.40;41.70;;;;;;5050651;28;20184;-13
2023/01/28 12:32:39;;;;;;;18.60;10.55;;;12.40;42.10;;;;;;5054706;28;20033;-13
2023/01/28 12:35:31;;;;;;;17.17;9.32;;;12.40;42.00;;;;;;5072361;28;20044;-12
2023/01/28 12:38:06;;;;;;;17.33;9.55;;;12.40;40.50;;;;;;5072545;28;20029;-12
2023/01/28 12:40:57;;;;;;;15.48;8.63;;;12.20;41.10;;;;;;5072621;28;20032;-13
2023/01/28 12:43:34;;;;;;;14.90;8.95;;;12.10;41.20;;;;;;5071367;28;20107;-11
2023/01/28 12:46:08;;;;;;;14.68;8.68;;;12.30;42.00;;;;;;5072418;28;20120;-13
2023/01/28 12:48:39;;;;;;;15.68;8.65;;;12.50;41.60;;;;;;5072424;28;20056;-14
2023/01/28 12:51:23;;;;;;;12.43;7.63;;;12.60;41.40;;;;;;5072597;28;20060;-12
2023/01/28 12:54:20;;;;;;;14.00;7.95;;;12.70;39.00;;;;;;5072911;28;20029;-13
2023/01/28 12:56:54;;;;;;;14.90;7.80;;;12.80;39.20;;;;;;5070132;28;20377;-13
2023/01/28 12:59:37;;;;;;;13.75;7.70;;;13.00;39.80;;;;;;5072431;28;20056;-12
2023/01/28 13:02:03;;;;;;;13.30;7.87;;;13.30;38.20;;;;;;5072329;28;20508;-11
2023/01/28 13:04:35;;;;;;;13.70;8.40;;;13.50;37.90;;;;;;5072385;28;20247;-13
2023/01/28 13:07:08;;;;;;;13.45;7.45;;;13.80;37.00;;;;;;5072047;28;20102;-12
2023/01/28 13:09:37;;;;;;;13.85;7.95;;;14.00;37.00;;;;;;5072653;28;20025;-13
2023/01/28 13:12:04;;;;;;;12.68;7.60;;;14.30;35.30;;;;;;5072781;28;20029;-14
2023/01/28 13:14:32;;;;;;;11.25;6.68;;;14.40;35.10;;;;;;5072833;28;20017;-12
2023/01/28 13:17:31;;;;;;;11.90;7.22;;;14.50;34.80;;;;;;5076713;28;20031;-13
2023/01/28 13:20:12;;;;;;;11.27;6.60;;;14.30;33.80;;;;;;5076122;28;20044;-13
2023/01/28 13:22:38;;;;;;;9.93;5.93;;;14.30;34.60;;;;;;5076180;28;20020;-13